Time;durP1;ratioP1;P1;durP2;ratioP2;P2;SDS_P1;SDS_P2;PMS_P1;PMS_P2;Temp;Humidity;BMP_temperature;BMP_pressure;BME280_temperature;BME280_humidity;BME280_pressure;Samples;Min_cycle;Max_cycle;Signal;HPM_P1;HPM_P2
2021/11/15 00:00:45;;;;;;;20.58;15.07;;;9.10;99.90;;;;;;5024188;28;20093;-49
2021/11/15 00:03:13;;;;;;;20.88;14.38;;;9.10;99.90;;;;;;5021821;28;20041;-48
2021/11/15 00:05:39;;;;;;;24.98;15.02;;;9.10;99.90;;;;;;5024752;28;20372;-51
2021/11/15 00:08:05;;;;;;;23.20;15.75;;;9.10;99.90;;;;;;5020797;28;20037;-51
2021/11/15 00:10:30;;;;;;;25.30;16.58;;;9.10;99.90;;;;;;5024288;28;20026;-49
2021/11/15 00:12:56;;;;;;;22.48;15.85;;;9.10;99.90;;;;;;5022577;28;20021;-51
2021/11/15 00:15:22;;;;;;;20.17;15.15;;;9.10;99.90;;;;;;5022870;28;20032;-49
2021/11/15 00:17:48;;;;;;;21.20;15.65;;;9.10;99.90;;;;;;5023373;28;20022;-48
2021/11/15 00:20:15;;;;;;;21.25;15.65;;;9.10;99.90;;;;;;5023351;28;20060;-49
2021/11/15 00:22:42;;;;;;;18.90;15.20;;;9.00;99.90;;;;;;5024256;28;20021;-52
2021/11/15 00:25:08;;;;;;;21.85;14.95;;;9.00;99.90;;;;;;5022765;28;20041;-50
2021/11/15 00:27:34;;;;;;;21.92;16.45;;;9.10;99.90;;;;;;5019865;28;20142;-48
2021/11/15 00:30:00;;;;;;;19.27;14.10;;;9.00;99.90;;;;;;5022251;28;20481;-50
2021/11/15 00:32:28;;;;;;;21.55;14.25;;;9.00;99.90;;;;;;5023185;28;20021;-50
2021/11/15 00:34:54;;;;;;;21.48;15.80;;;9.00;99.90;;;;;;5024163;28;20107;-50
2021/11/15 00:37:20;;;;;;;23.10;15.60;;;9.00;99.90;;;;;;5028727;28;20029;-48
2021/11/15 00:39:46;;;;;;;20.27;14.98;;;9.00;99.90;;;;;;5033340;28;20057;-52
2021/11/15 00:42:12;;;;;;;21.10;15.57;;;8.90;99.90;;;;;;5031292;28;20040;-48
2021/11/15 00:44:38;;;;;;;20.38;14.73;;;9.00;99.90;;;;;;5029813;28;20025;-50
2021/11/15 00:47:03;;;;;;;19.58;15.15;;;9.00;99.90;;;;;;5029137;28;20064;-50
2021/11/15 00:49:29;;;;;;;18.25;14.18;;;9.00;99.90;;;;;;5029752;28;20029;-52
2021/11/15 00:51:55;;;;;;;25.25;15.45;;;9.00;99.90;;;;;;5031071;28;20084;-48
2021/11/15 00:54:21;;;;;;;17.67;12.88;;;9.00;99.90;;;;;;5031354;28;20021;-48
2021/11/15 00:56:46;;;;;;;19.98;14.65;;;9.00;99.90;;;;;;5030420;28;20028;-48
2021/11/15 00:59:12;;;;;;;18.13;13.32;;;9.00;99.90;;;;;;5032258;28;20401;-53
2021/11/15 01:01:37;;;;;;;21.13;15.13;;;9.00;99.90;;;;;;5032535;28;20585;-47
2021/11/15 01:04:03;;;;;;;20.40;14.90;;;9.10;99.90;;;;;;5033468;28;20053;-49
2021/11/15 01:06:28;;;;;;;20.20;14.30;;;9.00;99.90;;;;;;5032931;28;20124;-49
2021/11/15 01:08:54;;;;;;;25.70;15.80;;;9.10;99.90;;;;;;5032670;28;20479;-48
2021/11/15 01:11:20;;;;;;;22.13;15.18;;;9.00;99.90;;;;;;5032729;28;20030;-51
2021/11/15 01:13:46;;;;;;;19.92;14.32;;;9.00;99.90;;;;;;5032754;28;20025;-51
2021/11/15 01:16:11;;;;;;;21.50;15.23;;;9.00;99.90;;;;;;5030566;28;20036;-50
2021/11/15 01:18:43;;;;;;;21.58;14.98;;;9.00;99.90;;;;;;5032504;28;20320;-49
2021/11/15 01:21:10;;;;;;;20.90;14.30;;;9.00;99.90;;;;;;5032790;28;20048;-50
2021/11/15 01:23:36;;;;;;;22.55;15.68;;;9.00;99.90;;;;;;5032831;28;20040;-52
2021/11/15 01:26:03;;;;;;;20.88;15.45;;;9.00;99.90;;;;;;5032706;28;20104;-50
2021/11/15 01:28:29;;;;;;;19.58;14.38;;;9.00;99.90;;;;;;5031903;28;20034;-47
2021/11/15 01:30:54;;;;;;;25.23;15.68;;;9.00;99.90;;;;;;5032192;28;20555;-48
2021/11/15 01:33:20;;;;;;;21.52;15.32;;;9.00;99.90;;;;;;5032286;28;20372;-50
2021/11/15 01:35:46;;;;;;;19.77;14.77;;;9.00;99.90;;;;;;5031430;28;20029;-49
2021/11/15 01:38:11;;;;;;;23.83;16.50;;;9.00;99.90;;;;;;5031569;28;20426;-47
2021/11/15 01:40:37;;;;;;;21.67;15.23;;;9.00;99.90;;;;;;5032088;28;20033;-48
2021/11/15 01:43:03;;;;;;;21.33;15.50;;;9.00;99.90;;;;;;5032245;28;20442;-51
2021/11/15 01:45:31;;;;;;;19.58;15.00;;;9.00;99.90;;;;;;5030689;28;20021;-51
2021/11/15 01:47:58;;;;;;;22.70;15.80;;;9.10;99.90;;;;;;5031392;28;20103;-51
2021/11/15 01:50:25;;;;;;;22.98;16.08;;;9.10;99.90;;;;;;5032142;28;20464;-50
2021/11/15 01:52:51;;;;;;;22.80;16.35;;;9.00;99.90;;;;;;5031863;28;20026;-51
2021/11/15 01:55:20;;;;;;;22.73;15.98;;;9.00;99.90;;;;;;5030577;28;20495;-49
2021/11/15 01:57:48;;;;;;;22.67;15.43;;;8.90;99.90;;;;;;5029781;28;20025;-49
2021/11/15 02:00:29;;;;;;;27.63;16.50;;;9.00;99.90;;;;;;5032033;28;20025;-51
2021/11/15 02:02:55;;;;;;;22.77;16.60;;;9.00;99.90;;;;;;5031716;28;20021;-49
2021/11/15 02:05:20;;;;;;;22.65;15.05;;;9.00;99.90;;;;;;5031792;28;20029;-51
2021/11/15 02:07:46;;;;;;;21.30;15.20;;;9.00;99.90;;;;;;5030933;28;20099;-50
2021/11/15 02:10:12;;;;;;;22.98;15.85;;;9.00;99.90;;;;;;5031429;28;20022;-52
2021/11/15 02:12:38;;;;;;;20.40;15.20;;;9.00;99.90;;;;;;5031235;28;20462;-49
2021/11/15 02:15:06;;;;;;;23.45;15.65;;;9.00;99.90;;;;;;5031431;28;20083;-53
2021/11/15 02:17:32;;;;;;;22.92;15.70;;;9.00;99.90;;;;;;5029441;28;20021;-53
2021/11/15 02:20:03;;;;;;;31.73;16.95;;;8.90;99.90;;;;;;5031722;28;20067;-52
2021/11/15 02:22:29;;;;;;;23.05;16.55;;;9.00;99.90;;;;;;5031221;28;20087;-51
2021/11/15 02:24:54;;;;;;;24.13;16.15;;;8.90;99.90;;;;;;5031819;28;20442;-49
2021/11/15 02:27:20;;;;;;;23.48;15.70;;;8.90;99.90;;;;;;5030482;28;20548;-50
2021/11/15 02:29:45;;;;;;;26.45;17.30;;;8.90;99.90;;;;;;5031114;28;20029;-52
2021/11/15 02:32:11;;;;;;;24.98;16.38;;;9.00;99.90;;;;;;5031169;28;20030;-54
2021/11/15 02:34:36;;;;;;;23.90;16.83;;;8.90;99.90;;;;;;5031008;28;20080;-50
2021/11/15 02:37:02;;;;;;;26.63;16.45;;;8.90;99.90;;;;;;5028475;28;20522;-50
2021/11/15 02:39:27;;;;;;;24.00;15.48;;;8.90;99.90;;;;;;5031003;28;20048;-49
2021/11/15 02:41:53;;;;;;;23.85;15.57;;;8.90;99.90;;;;;;5029705;28;20075;-52
2021/11/15 02:44:19;;;;;;;24.45;16.65;;;8.90;99.90;;;;;;5031117;28;20040;-49
2021/11/15 02:46:45;;;;;;;23.90;15.93;;;8.80;99.90;;;;;;5028875;28;20131;-48
2021/11/15 02:49:10;;;;;;;25.55;16.50;;;8.90;99.90;;;;;;5029504;28;20123;-53
2021/11/15 02:51:36;;;;;;;23.80;16.00;;;8.90;99.90;;;;;;5030770;28;20032;-52
2021/11/15 02:54:02;;;;;;;23.30;16.75;;;8.90;99.90;;;;;;5030762;28;20414;-48
2021/11/15 02:56:27;;;;;;;28.10;18.02;;;8.80;99.90;;;;;;5030339;28;20018;-48
2021/11/15 02:58:53;;;;;;;24.33;16.13;;;8.80;99.90;;;;;;5030678;28;20057;-48
2021/11/15 03:01:21;;;;;;;21.25;15.40;;;8.80;99.90;;;;;;5030733;28;20527;-52
2021/11/15 03:03:47;;;;;;;27.08;17.90;;;8.80;99.90;;;;;;5030596;28;20106;-48
2021/11/15 03:06:13;;;;;;;27.65;16.58;;;8.80;99.90;;;;;;5029897;28;20092;-49
2021/11/15 03:08:40;;;;;;;25.08;17.23;;;8.80;99.90;;;;;;5030437;28;20057;-53
2021/11/15 03:11:06;;;;;;;24.83;16.13;;;8.80;99.90;;;;;;5030428;28;20026;-51
2021/11/15 03:13:44;;;;;;;23.60;16.05;;;8.80;99.90;;;;;;5030477;28;20433;-51
2021/11/15 03:16:11;;;;;;;25.27;16.00;;;8.80;99.90;;;;;;5030043;28;20021;-54
2021/11/15 03:18:38;;;;;;;24.58;17.05;;;8.80;99.90;;;;;;5030368;28;20529;-51
2021/11/15 03:21:18;;;;;;;26.35;16.95;;;8.80;99.90;;;;;;5030673;28;20304;-53
2021/11/15 03:23:48;;;;;;;24.60;15.68;;;8.80;99.90;;;;;;5030747;28;20036;-54
2021/11/15 03:26:14;;;;;;;25.88;17.02;;;8.80;99.90;;;;;;5029472;28;20472;-53
2021/11/15 03:28:43;;;;;;;25.35;17.55;;;8.80;99.90;;;;;;5030480;28;20075;-49
2021/11/15 03:31:15;;;;;;;25.50;17.10;;;8.90;99.90;;;;;;5030314;28;20446;-49
2021/11/15 03:33:41;;;;;;;29.05;17.48;;;8.90;99.90;;;;;;5030321;28;20075;-50
2021/11/15 03:36:07;;;;;;;24.33;16.02;;;8.90;99.90;;;;;;5028034;28;20392;-49
2021/11/15 03:38:33;;;;;;;22.75;16.05;;;8.90;99.90;;;;;;5028538;28;20083;-50
2021/11/15 03:40:59;;;;;;;22.27;15.23;;;8.80;99.90;;;;;;5030179;28;20032;-50
2021/11/15 03:43:25;;;;;;;23.48;15.63;;;8.90;99.90;;;;;;5030188;28;20026;-49
2021/11/15 03:45:50;;;;;;;21.70;15.38;;;8.90;99.90;;;;;;5030260;28;20117;-51
2021/11/15 03:48:16;;;;;;;24.73;16.42;;;8.80;99.90;;;;;;5029391;28;20029;-51
2021/11/15 03:50:42;;;;;;;24.02;15.68;;;8.90;99.90;;;;;;5030007;28;20038;-53
2021/11/15 03:53:13;;;;;;;23.83;16.13;;;8.90;99.90;;;;;;5028997;28;20048;-48
2021/11/15 03:55:39;;;;;;;23.40;15.80;;;8.90;99.90;;;;;;5030202;28;20360;-48
2021/11/15 03:58:06;;;;;;;25.20;16.05;;;8.90;99.90;;;;;;5029363;28;20551;-51
2021/11/15 04:00:35;;;;;;;21.42;14.98;;;8.90;99.90;;;;;;5030204;28;20571;-49
2021/11/15 04:03:04;;;;;;;21.35;14.68;;;8.90;99.90;;;;;;5030138;28;20383;-50
2021/11/15 04:05:37;;;;;;;23.08;16.00;;;8.90;99.90;;;;;;5030476;28;20386;-49
2021/11/15 04:08:06;;;;;;;25.83;15.20;;;8.90;99.90;;;;;;5027920;28;20470;-51
2021/11/15 04:10:37;;;;;;;23.20;15.65;;;8.90;99.90;;;;;;5030082;28;20069;-50
2021/11/15 04:13:28;;;;;;;24.42;14.80;;;9.00;99.90;;;;;;5029979;28;20032;-50
2021/11/15 04:15:57;;;;;;;23.48;15.13;;;8.90;99.90;;;;;;5030048;28;20360;-52
2021/11/15 04:18:25;;;;;;;25.92;15.50;;;8.90;99.90;;;;;;5029406;28;20284;-51
2021/11/15 04:20:51;;;;;;;24.15;15.23;;;9.00;99.90;;;;;;5030065;28;20033;-50
2021/11/15 04:23:17;;;;;;;23.00;15.60;;;9.00;99.90;;;;;;5029979;28;20034;-49
2021/11/15 04:25:43;;;;;;;25.13;16.50;;;9.00;99.90;;;;;;5029903;28;20037;-52
2021/11/15 04:28:09;;;;;;;24.17;16.88;;;8.90;99.90;;;;;;5028814;28;20033;-50
2021/11/15 04:30:35;;;;;;;23.70;16.98;;;9.00;99.90;;;;;;5029778;28;20030;-49
2021/11/15 04:33:03;;;;;;;28.35;17.30;;;8.90;99.90;;;;;;5029755;28;20018;-50
2021/11/15 04:35:30;;;;;;;25.25;16.75;;;8.90;99.90;;;;;;5029784;28;20017;-51
2021/11/15 04:37:56;;;;;;;22.33;15.60;;;8.90;99.90;;;;;;5030987;28;20033;-54
2021/11/15 04:40:21;;;;;;;20.67;14.68;;;8.90;99.90;;;;;;5033190;28;20022;-52
2021/11/15 04:42:47;;;;;;;26.58;16.15;;;8.90;99.90;;;;;;5033107;28;20102;-49
2021/11/15 04:45:13;;;;;;;22.15;15.13;;;8.90;99.90;;;;;;5033199;28;20431;-48
2021/11/15 04:47:39;;;;;;;21.73;14.95;;;8.90;99.90;;;;;;5032341;28;20025;-48
2021/11/15 04:50:05;;;;;;;22.80;14.95;;;8.90;99.90;;;;;;5032979;28;20392;-51
2021/11/15 04:52:31;;;;;;;23.70;15.73;;;8.90;99.90;;;;;;5032903;28;20038;-49
2021/11/15 04:54:57;;;;;;;21.35;14.23;;;9.00;99.90;;;;;;5032967;28;20057;-52
2021/11/15 04:57:23;;;;;;;28.27;14.70;;;9.00;99.90;;;;;;5032089;28;20037;-53
2021/11/15 04:59:49;;;;;;;23.10;15.27;;;8.90;99.90;;;;;;5031360;28;20108;-49
2021/11/15 05:02:15;;;;;;;20.98;14.95;;;8.90;99.90;;;;;;5032797;28;20473;-54
2021/11/15 05:04:41;;;;;;;22.10;15.75;;;8.90;99.90;;;;;;5031363;28;20056;-52
2021/11/15 05:07:07;;;;;;;24.52;13.82;;;8.90;99.90;;;;;;5032431;28;20079;-50
2021/11/15 05:09:34;;;;;;;23.13;15.35;;;8.80;99.90;;;;;;5032491;28;20493;-53
2021/11/15 05:12:00;;;;;;;23.02;14.55;;;8.90;99.90;;;;;;5032495;28;20098;-50
2021/11/15 05:14:26;;;;;;;20.50;13.60;;;8.90;99.90;;;;;;5032539;28;20044;-53
2021/11/15 05:16:51;;;;;;;19.90;13.60;;;8.90;99.90;;;;;;5032016;28;20022;-50
2021/11/15 05:19:17;;;;;;;24.25;14.73;;;8.90;99.90;;;;;;5032713;28;20454;-50
2021/11/15 05:21:42;;;;;;;20.67;13.38;;;8.90;99.90;;;;;;5032555;28;20076;-51
2021/11/15 05:24:08;;;;;;;21.60;14.30;;;8.90;99.90;;;;;;5032361;28;20076;-50
2021/11/15 05:26:34;;;;;;;21.95;14.15;;;9.00;99.90;;;;;;5032759;28;20465;-48
2021/11/15 05:28:59;;;;;;;20.00;13.98;;;9.00;99.90;;;;;;5032514;28;20021;-49
2021/11/15 05:31:26;;;;;;;19.55;13.60;;;9.00;99.90;;;;;;5032415;28;20464;-49
2021/11/15 05:33:52;;;;;;;20.00;14.50;;;9.00;99.90;;;;;;5031051;28;20064;-48
2021/11/15 05:36:17;;;;;;;20.75;14.63;;;9.00;99.90;;;;;;5029785;28;20103;-48
2021/11/15 05:38:42;;;;;;;23.42;14.57;;;8.90;99.90;;;;;;5032195;28;20025;-51
2021/11/15 05:41:08;;;;;;;21.70;14.82;;;8.90;99.90;;;;;;5032202;28;20103;-50
2021/11/15 05:43:34;;;;;;;23.90;13.98;;;8.90;99.90;;;;;;5032064;28;20459;-50
2021/11/15 05:45:59;;;;;;;20.90;14.15;;;8.90;99.90;;;;;;5032098;28;20121;-52
2021/11/15 05:48:25;;;;;;;21.98;13.60;;;8.90;99.90;;;;;;5029869;28;20056;-50
2021/11/15 05:50:51;;;;;;;22.02;14.57;;;8.90;99.90;;;;;;5032108;28;20026;-53
2021/11/15 05:53:16;;;;;;;20.65;13.35;;;8.90;99.90;;;;;;5032121;28;20034;-50
2021/11/15 05:55:43;;;;;;;21.05;13.20;;;8.90;99.90;;;;;;5031887;28;20017;-50
2021/11/15 05:58:09;;;;;;;21.15;15.35;;;8.90;99.90;;;;;;5029790;28;20018;-50
2021/11/15 06:00:35;;;;;;;22.60;14.18;;;8.90;99.90;;;;;;5031686;28;20075;-51
2021/11/15 06:03:01;;;;;;;22.60;15.43;;;8.90;99.90;;;;;;5032006;28;20547;-49
2021/11/15 06:05:27;;;;;;;21.58;13.70;;;8.80;99.90;;;;;;5031506;28;20033;-50
2021/11/15 06:07:54;;;;;;;20.23;13.70;;;8.80;99.90;;;;;;5030751;28;20033;-50
2021/11/15 06:10:20;;;;;;;23.98;14.82;;;8.90;99.90;;;;;;5031312;28;20025;-50
2021/11/15 06:12:46;;;;;;;23.92;14.73;;;8.90;99.90;;;;;;5031345;28;20025;-50
2021/11/15 06:15:13;;;;;;;23.80;15.68;;;8.90;99.90;;;;;;5031528;28;20433;-51
2021/11/15 06:17:39;;;;;;;22.67;14.30;;;8.90;99.90;;;;;;5030492;28;20030;-53
2021/11/15 06:20:06;;;;;;;22.23;14.85;;;9.00;99.90;;;;;;5031218;28;20104;-50
2021/11/15 06:22:32;;;;;;;22.05;14.75;;;8.90;99.90;;;;;;5031094;28;20338;-54
2021/11/15 06:24:58;;;;;;;20.17;14.18;;;8.80;99.90;;;;;;5031252;28;20107;-49
2021/11/15 06:27:24;;;;;;;30.23;15.95;;;8.90;99.90;;;;;;5030364;28;20037;-50
2021/11/15 06:29:49;;;;;;;22.88;14.75;;;8.90;99.90;;;;;;5031029;28;20542;-50
2021/11/15 06:32:15;;;;;;;23.85;14.75;;;8.80;99.90;;;;;;5031422;28;20037;-48
2021/11/15 06:34:41;;;;;;;20.88;14.95;;;8.80;99.90;;;;;;5031105;28;20017;-50
2021/11/15 06:37:07;;;;;;;23.13;15.65;;;8.90;99.90;;;;;;5026984;28;20072;-51
2021/11/15 06:39:33;;;;;;;21.75;15.23;;;8.80;99.90;;;;;;5030847;28;20030;-49
2021/11/15 06:41:59;;;;;;;24.77;16.05;;;8.80;99.90;;;;;;5029684;28;20033;-50
2021/11/15 06:44:27;;;;;;;25.55;16.20;;;8.80;99.90;;;;;;5030871;28;20052;-49
2021/11/15 06:46:52;;;;;;;22.60;15.15;;;8.80;99.90;;;;;;5030211;28;20025;-49
2021/11/15 06:49:18;;;;;;;24.17;14.05;;;8.80;99.90;;;;;;5031110;28;20026;-53
2021/11/15 06:51:46;;;;;;;24.83;14.55;;;8.80;99.90;;;;;;5030916;28;20441;-51
2021/11/15 06:54:12;;;;;;;21.92;14.27;;;8.70;99.90;;;;;;5031064;28;20032;-51
2021/11/15 06:56:38;;;;;;;27.05;15.55;;;8.80;99.90;;;;;;5030091;28;20060;-51
2021/11/15 06:59:04;;;;;;;23.23;14.82;;;8.80;99.90;;;;;;5030322;28;20472;-52
2021/11/15 07:01:34;;;;;;;24.77;15.38;;;8.80;99.90;;;;;;5030527;28;20021;-50
2021/11/15 07:04:00;;;;;;;24.60;15.40;;;8.80;99.90;;;;;;5030756;28;20018;-45
2021/11/15 07:06:25;;;;;;;25.13;15.50;;;8.80;99.90;;;;;;5022843;28;20029;-45
2021/11/15 07:08:51;;;;;;;24.00;15.10;;;8.80;99.90;;;;;;5011137;28;20061;-49
2021/11/15 07:11:16;;;;;;;25.38;15.63;;;8.80;99.90;;;;;;5010923;28;20026;-46
2021/11/15 07:13:42;;;;;;;22.75;14.15;;;8.80;99.90;;;;;;5010964;28;20032;-44
2021/11/15 07:16:08;;;;;;;23.10;14.20;;;8.80;99.90;;;;;;5010516;28;20017;-46
2021/11/15 07:18:33;;;;;;;21.95;14.50;;;8.80;99.90;;;;;;5017039;28;20018;-48
2021/11/15 07:21:00;;;;;;;22.98;14.82;;;8.80;99.90;;;;;;5023288;28;20058;-46
2021/11/15 07:23:26;;;;;;;25.70;15.85;;;8.80;99.90;;;;;;5014308;28;20496;-47
2021/11/15 07:25:54;;;;;;;21.48;14.45;;;8.80;99.90;;;;;;5030535;28;20057;-47
2021/11/15 07:28:20;;;;;;;23.27;14.32;;;8.80;99.90;;;;;;5027915;28;20095;-46
2021/11/15 07:30:46;;;;;;;18.92;13.10;;;8.80;99.90;;;;;;5029202;28;20026;-46
2021/11/15 07:33:13;;;;;;;24.13;15.35;;;8.80;99.90;;;;;;5025788;28;20025;-48
2021/11/15 07:35:38;;;;;;;21.60;13.80;;;8.90;99.90;;;;;;5030165;28;20483;-52
2021/11/15 07:38:04;;;;;;;29.27;15.60;;;8.90;99.90;;;;;;5029563;28;20033;-46
2021/11/15 07:40:29;;;;;;;25.83;15.23;;;8.90;99.90;;;;;;5030204;28;20543;-49
2021/11/15 07:42:55;;;;;;;23.63;14.68;;;8.90;99.90;;;;;;5030265;28;20030;-50
2021/11/15 07:45:21;;;;;;;23.88;15.05;;;8.70;99.90;;;;;;5030324;28;20035;-49
2021/11/15 07:47:47;;;;;;;22.95;14.13;;;8.70;99.90;;;;;;5029677;28;20108;-47
2021/11/15 07:50:13;;;;;;;23.73;14.40;;;8.70;99.90;;;;;;5030095;28;20079;-47
2021/11/15 07:52:39;;;;;;;23.23;13.73;;;8.80;99.90;;;;;;5028984;28;20025;-48
2021/11/15 07:55:07;;;;;;;18.70;13.25;;;8.70;99.90;;;;;;5030300;28;20036;-47
2021/11/15 07:57:34;;;;;;;19.35;13.27;;;8.70;99.90;;;;;;5029525;28;20471;-49
2021/11/15 07:59:59;;;;;;;22.27;14.80;;;8.80;99.90;;;;;;5030272;28;20030;-46
2021/11/15 08:02:25;;;;;;;21.02;12.98;;;8.70;99.90;;;;;;5030219;28;20144;-48
2021/11/15 08:04:51;;;;;;;21.50;13.43;;;8.70;99.90;;;;;;5028848;28;20033;-48
2021/11/15 08:07:16;;;;;;;20.38;13.40;;;8.70;99.90;;;;;;5029257;28;20021;-50
2021/11/15 08:09:42;;;;;;;20.33;13.73;;;8.70;99.90;;;;;;5029993;28;20033;-47
2021/11/15 08:12:10;;;;;;;21.48;12.95;;;8.80;99.90;;;;;;5032542;28;20052;-48
2021/11/15 08:14:41;;;;;;;22.50;14.25;;;8.80;99.90;;;;;;5032468;28;20026;-48
2021/11/15 08:17:09;;;;;;;17.92;11.98;;;8.80;99.90;;;;;;5033016;28;20057;-47
2021/11/15 08:19:35;;;;;;;18.42;11.02;;;8.60;99.90;;;;;;5033781;28;20036;-47
2021/11/15 08:22:00;;;;;;;24.00;13.25;;;8.70;99.90;;;;;;5032718;28;20025;-50
2021/11/15 08:24:49;;;;;;;20.58;13.15;;;8.80;99.90;;;;;;5033886;28;20026;-48
2021/11/15 08:27:14;;;;;;;17.60;11.18;;;8.70;99.90;;;;;;5032882;28;20060;-50
2021/11/15 08:29:43;;;;;;;19.70;12.38;;;8.70;99.90;;;;;;5033618;28;20029;-48
2021/11/15 08:32:10;;;;;;;19.85;12.02;;;8.80;99.90;;;;;;5033365;28;20067;-48
2021/11/15 08:34:36;;;;;;;20.95;12.70;;;8.80;99.90;;;;;;5033483;28;20422;-49
2021/11/15 08:37:05;;;;;;;20.33;11.45;;;8.80;99.90;;;;;;5032463;28;20026;-49
2021/11/15 08:39:32;;;;;;;18.58;11.90;;;8.90;99.90;;;;;;5033252;28;20029;-49
2021/11/15 08:42:02;;;;;;;24.90;12.45;;;8.90;99.90;;;;;;5033069;28;20025;-53
2021/11/15 08:44:29;;;;;;;17.80;11.30;;;8.80;99.90;;;;;;5033058;28;20032;-48
2021/11/15 08:46:56;;;;;;;16.83;11.70;;;8.80;99.90;;;;;;5032380;28;20052;-49
2021/11/15 08:49:26;;;;;;;17.25;11.93;;;8.80;99.90;;;;;;5033054;28;20100;-49
2021/11/15 08:51:51;;;;;;;19.10;11.93;;;8.90;99.90;;;;;;5031760;28;20100;-49
2021/11/15 08:54:20;;;;;;;18.05;11.50;;;8.90;99.90;;;;;;5032941;28;20594;-49
2021/11/15 08:56:51;;;;;;;16.38;11.07;;;8.80;99.90;;;;;;5031844;28;20017;-48
2021/11/15 08:59:17;;;;;;;19.13;12.45;;;8.90;99.90;;;;;;5032677;28;20026;-51
2021/11/15 09:01:44;;;;;;;19.17;11.48;;;8.90;99.90;;;;;;5032647;28;20029;-48
2021/11/15 09:04:10;;;;;;;16.83;11.48;;;8.80;99.90;;;;;;5032683;28;20037;-53
2021/11/15 09:06:36;;;;;;;17.95;11.57;;;8.80;99.90;;;;;;5031769;28;20051;-48
2021/11/15 09:09:04;;;;;;;16.40;11.32;;;8.80;99.90;;;;;;5032557;28;20030;-52
2021/11/15 09:11:29;;;;;;;19.30;10.80;;;8.90;99.90;;;;;;5032665;28;20026;-47
2021/11/15 09:13:56;;;;;;;18.67;10.80;;;8.80;99.90;;;;;;5031400;28;20036;-48
2021/11/15 09:16:21;;;;;;;16.90;10.57;;;8.90;99.90;;;;;;5023891;28;20435;-51
2021/11/15 09:18:48;;;;;;;18.10;11.93;;;8.80;99.90;;;;;;5016298;28;20052;-48
2021/11/15 09:21:14;;;;;;;15.38;10.73;;;8.80;99.90;;;;;;5013373;28;20030;-48
2021/11/15 09:23:42;;;;;;;15.43;10.88;;;8.70;99.90;;;;;;5014347;28;20431;-49
2021/11/15 09:26:10;;;;;;;14.05;9.45;;;8.80;99.90;;;;;;5028149;28;20479;-47
2021/11/15 09:28:36;;;;;;;16.30;10.75;;;8.80;99.90;;;;;;5028959;28;20026;-50
2021/11/15 09:31:03;;;;;;;14.18;10.13;;;8.80;99.90;;;;;;5020831;28;20021;-52
2021/11/15 09:33:28;;;;;;;15.30;11.20;;;8.90;99.90;;;;;;5019903;28;20448;-48
2021/11/15 09:35:55;;;;;;;17.85;9.98;;;8.90;99.90;;;;;;5012245;28;20108;-50
2021/11/15 09:38:22;;;;;;;15.23;9.85;;;8.90;99.90;;;;;;5011140;28;20097;-49
2021/11/15 09:40:55;;;;;;;17.40;9.85;;;8.90;99.90;;;;;;5012409;28;20030;-49
2021/11/15 09:43:25;;;;;;;18.00;9.52;;;8.90;99.90;;;;;;5012245;28;20033;-49
2021/11/15 09:45:51;;;;;;;12.77;9.23;;;9.00;99.90;;;;;;5020993;28;20029;-47
2021/11/15 09:48:17;;;;;;;13.18;9.52;;;8.90;99.90;;;;;;5025694;28;20120;-47
2021/11/15 09:50:43;;;;;;;14.70;10.05;;;8.80;99.90;;;;;;5016209;28;20288;-48
2021/11/15 09:53:09;;;;;;;14.70;10.27;;;8.70;99.90;;;;;;5019829;28;20125;-51
2021/11/15 09:55:35;;;;;;;12.77;9.00;;;8.80;99.90;;;;;;5012336;28;20084;-51
2021/11/15 09:58:00;;;;;;;16.45;9.68;;;8.80;99.90;;;;;;5011263;28;20030;-49
2021/11/15 10:00:27;;;;;;;14.73;9.50;;;8.80;99.90;;;;;;5012910;28;20049;-49
2021/11/15 10:02:56;;;;;;;12.45;9.30;;;8.80;99.90;;;;;;5028046;28;20056;-50
2021/11/15 10:05:21;;;;;;;13.80;8.88;;;8.70;99.90;;;;;;5029782;28;20026;-48
2021/11/15 10:07:48;;;;;;;13.20;9.13;;;8.70;99.90;;;;;;5020185;28;20039;-50
2021/11/15 10:10:57;;;;;;;12.40;8.73;;;8.80;99.90;;;;;;5031448;28;20510;-50
2021/11/15 10:13:34;;;;;;;9.82;7.97;;;8.80;99.90;;;;;;5010616;28;20034;-49
2021/11/15 10:16:21;;;;;;;14.63;9.50;;;8.80;99.90;;;;;;5030949;28;20402;-48
2021/11/15 10:18:57;;;;;;;13.55;8.20;;;8.80;99.90;;;;;;5022674;28;20034;-48
2021/11/15 10:21:32;;;;;;;12.82;8.40;;;8.90;99.90;;;;;;5028566;28;20546;-48
2021/11/15 10:24:07;;;;;;;18.10;9.30;;;8.80;99.90;;;;;;5031108;28;20479;-48
2021/11/15 10:26:42;;;;;;;;;;;8.80;99.90;;;;;;5022126;28;20037;-48
2021/11/15 10:29:14;;;;;;;14.60;8.65;;;8.70;99.90;;;;;;5012679;28;19913;-51
2021/11/15 10:31:45;;;;;;;13.27;9.68;;;8.70;99.90;;;;;;5022797;28;20026;-50
2021/11/15 10:34:30;;;;;;;15.63;9.60;;;8.70;99.90;;;;;;5011555;28;20028;-48
2021/11/15 10:37:11;;;;;;;13.73;9.18;;;8.70;99.90;;;;;;5009150;28;20653;-48
2021/11/15 10:39:56;;;;;;;13.80;8.82;;;8.70;99.90;;;;;;5024598;28;20044;-49
2021/11/15 10:42:34;;;;;;;12.10;8.43;;;8.70;99.90;;;;;;5023312;28;20455;-47
2021/11/15 10:45:02;;;;;;;12.43;8.07;;;8.60;99.90;;;;;;5022398;28;20044;-48
2021/11/15 10:47:51;;;;;;;13.93;8.57;;;8.60;99.90;;;;;;5021193;28;20499;-47
2021/11/15 10:50:29;;;;;;;12.43;8.05;;;8.60;99.90;;;;;;5021401;28;20055;-51
2021/11/15 10:53:01;;;;;;;16.73;7.60;;;8.50;99.90;;;;;;5029695;28;20496;-50
2021/11/15 10:55:35;;;;;;;10.93;8.27;;;8.50;99.90;;;;;;5025666;28;20052;-46
2021/11/15 10:58:22;;;;;;;14.52;9.68;;;8.50;99.90;;;;;;5010848;28;20034;-50
2021/11/15 11:00:52;;;;;;;13.32;7.82;;;8.50;99.90;;;;;;5011244;28;20037;-48
2021/11/15 11:03:21;;;;;;;13.43;8.57;;;8.60;99.90;;;;;;5011738;28;20135;-51
2021/11/15 11:05:50;;;;;;;14.55;8.57;;;8.60;99.90;;;;;;5020472;28;20072;-49
2021/11/15 11:08:21;;;;;;;12.25;8.88;;;8.50;99.90;;;;;;5026825;28;20044;-51
2021/11/15 11:11:07;;;;;;;15.98;8.20;;;8.50;99.90;;;;;;5018637;28;20071;-58
2021/11/15 11:13:49;;;;;;;10.13;8.00;;;8.40;99.90;;;;;;5029976;28;20029;-50
2021/11/15 11:16:16;;;;;;;11.27;7.90;;;8.40;99.90;;;;;;5010572;28;20041;-48
2021/11/15 11:18:48;;;;;;;12.48;8.60;;;8.40;99.90;;;;;;5010863;28;20018;-51
2021/11/15 11:21:47;;;;;;;12.10;7.93;;;8.50;99.90;;;;;;5010487;28;20030;-49
2021/11/15 11:27:05;;;;;;;15.07;8.10;;;8.60;99.90;;;;;;5011655;28;20040;-47
2021/11/15 11:29:38;;;;;;;12.05;7.75;;;8.60;99.90;;;;;;5010820;28;20079;-47
2021/11/15 11:32:08;;;;;;;12.18;7.47;;;8.50;99.90;;;;;;5011000;28;20499;-47
2021/11/15 11:34:35;;;;;;;11.77;7.57;;;8.50;99.90;;;;;;5010785;28;20041;-49
2021/11/15 11:37:04;;;;;;;9.43;7.00;;;8.50;99.90;;;;;;5010442;28;20022;-48
2021/11/15 11:39:30;;;;;;;17.35;7.60;;;8.50;99.90;;;;;;5010898;28;20025;-49
2021/11/15 11:41:59;;;;;;;12.80;8.20;;;8.50;99.90;;;;;;5010778;28;20054;-48
2021/11/15 11:44:27;;;;;;;11.35;7.63;;;8.40;99.90;;;;;;5011050;28;20546;-49
2021/11/15 11:46:55;;;;;;;14.57;8.15;;;8.50;99.90;;;;;;5012455;28;20026;-49
2021/11/15 11:49:24;;;;;;;11.25;7.18;;;8.50;99.90;;;;;;5014478;28;20036;-48
2021/11/15 11:51:53;;;;;;;11.35;7.43;;;8.50;99.90;;;;;;5014229;28;20033;-47
2021/11/15 11:54:31;;;;;;;20.38;7.63;;;8.40;99.90;;;;;;5014560;28;20057;-49
2021/11/15 11:57:31;;;;;;;16.58;8.27;;;8.50;99.90;;;;;;5014059;28;20024;-50
2021/11/15 12:00:00;;;;;;;14.43;8.27;;;8.60;99.90;;;;;;5014262;28;20065;-50
2021/11/15 12:02:28;;;;;;;11.25;7.15;;;8.50;99.90;;;;;;5014143;28;20026;-50
2021/11/15 12:05:03;;;;;;;9.40;7.18;;;8.50;99.90;;;;;;5014331;28;20442;-52
2021/11/15 12:07:35;;;;;;;12.07;9.30;;;8.40;99.90;;;;;;5013984;28;20047;-47
2021/11/15 12:10:08;;;;;;;10.73;7.32;;;8.50;99.90;;;;;;5014221;28;20032;-47
2021/11/15 12:12:52;;;;;;;17.58;9.00;;;8.50;99.90;;;;;;5014051;28;20018;-53
2021/11/15 12:15:33;;;;;;;11.48;8.05;;;8.50;99.90;;;;;;5014125;28;20050;-48
2021/11/15 12:18:19;;;;;;;10.70;6.90;;;8.50;99.90;;;;;;5013803;28;20014;-49
2021/11/15 12:21:13;;;;;;;10.05;6.85;;;8.60;99.90;;;;;;5013913;28;20101;-48
2021/11/15 12:23:50;;;;;;;14.50;7.60;;;8.60;99.90;;;;;;5013881;28;20026;-48
2021/11/15 12:26:22;;;;;;;12.27;7.50;;;8.50;99.90;;;;;;5013537;28;20026;-50
2021/11/15 12:28:50;;;;;;;9.75;7.15;;;8.60;99.90;;;;;;5013837;28;20041;-49
2021/11/15 12:31:44;;;;;;;17.67;7.88;;;8.60;99.90;;;;;;5013802;28;20106;-49
2021/11/15 12:34:09;;;;;;;11.40;7.13;;;8.50;99.90;;;;;;5013797;28;20505;-48
2021/11/15 12:36:46;;;;;;;9.55;6.63;;;8.50;99.90;;;;;;5013338;28;20034;-48
2021/11/15 12:39:18;;;;;;;9.43;6.25;;;8.50;99.90;;;;;;5014175;28;20045;-48
2021/11/15 12:41:50;;;;;;;13.38;6.30;;;8.50;99.90;;;;;;5013941;28;20025;-48
2021/11/15 12:44:36;;;;;;;12.25;6.90;;;8.60;99.90;;;;;;5013741;28;20026;-50
2021/11/15 12:47:06;;;;;;;;;;;8.50;99.90;;;;;;5013812;28;20352;-50
2021/11/15 12:49:36;;;;;;;10.20;6.40;;;8.50;99.90;;;;;;5013567;28;19963;-51